Time;durP1;ratioP1;P1;durP2;ratioP2;P2;SDS_P1;SDS_P2;PMS_P1;PMS_P2;Temp;Humidity;BMP_temperature;BMP_pressure;BME280_temperature;BME280_humidity;BME280_pressure;Samples;Min_cycle;Max_cycle;Signal;HPM_P1;HPM_P2
2023/08/18 00:00:34;;;;;;;58.50;43.22;;;19.00;99.90;;;;;;5114133;27;20100;-67
2023/08/18 00:03:01;;;;;;;49.63;40.88;;;19.00;99.90;;;;;;5114088;28;20028;-66
2023/08/18 00:05:26;;;;;;;54.85;44.80;;;19.00;99.90;;;;;;5113900;28;20031;-66
2023/08/18 00:07:52;;;;;;;53.38;44.22;;;19.00;99.90;;;;;;5114171;28;20381;-66
2023/08/18 00:10:18;;;;;;;49.22;41.55;;;19.00;99.90;;;;;;5113874;28;20028;-66
2023/08/18 00:12:44;;;;;;;50.13;40.92;;;19.00;99.90;;;;;;5113891;28;20034;-66
2023/08/18 00:15:10;;;;;;;54.15;41.30;;;18.90;99.90;;;;;;5113829;28;20034;-67
2023/08/18 00:17:36;;;;;;;48.55;41.58;;;18.90;99.90;;;;;;5113750;28;20145;-66
2023/08/18 00:20:03;;;;;;;51.53;40.50;;;18.90;99.90;;;;;;5113924;28;20501;-66
2023/08/18 00:22:30;;;;;;;57.72;43.50;;;19.00;99.90;;;;;;5113937;28;20031;-67
2023/08/18 00:24:58;;;;;;;49.45;42.15;;;19.00;99.90;;;;;;5113693;28;20469;-66
2023/08/18 00:27:24;;;;;;;53.67;42.92;;;19.00;99.90;;;;;;5113519;28;20110;-66
2023/08/18 00:29:50;;;;;;;56.25;46.20;;;18.90;99.90;;;;;;5112203;28;20027;-66
2023/08/18 00:32:16;;;;;;;55.78;43.78;;;19.10;99.90;;;;;;5112110;28;20432;-66
2023/08/18 00:34:42;;;;;;;53.72;41.13;;;19.10;99.90;;;;;;5112363;28;20459;-66
2023/08/18 00:37:08;;;;;;;49.80;41.28;;;19.00;99.90;;;;;;5112316;28;20404;-66
2023/08/18 00:39:34;;;;;;;54.97;41.85;;;19.00;99.90;;;;;;5113293;28;20134;-67
2023/08/18 00:42:00;;;;;;;53.90;42.72;;;19.00;99.90;;;;;;5113440;28;20034;-67
2023/08/18 00:44:26;;;;;;;52.35;42.53;;;18.90;99.90;;;;;;5113325;28;20418;-66
2023/08/18 00:46:53;;;;;;;48.60;40.80;;;18.90;99.90;;;;;;5111578;28;20423;-67
2023/08/18 00:49:20;;;;;;;49.10;40.30;;;18.90;99.90;;;;;;5112069;28;20028;-67
2023/08/18 00:51:47;;;;;;;48.08;39.70;;;18.90;99.90;;;;;;5113247;28;20035;-66
2023/08/18 00:54:13;;;;;;;47.33;39.33;;;18.90;99.90;;;;;;5111775;28;20063;-67
2023/08/18 00:56:42;;;;;;;47.55;39.05;;;18.90;99.90;;;;;;5113312;28;20051;-66
2023/08/18 00:59:08;;;;;;;46.80;39.13;;;18.90;99.90;;;;;;5111599;28;20028;-66
2023/08/18 01:01:36;;;;;;;50.35;41.08;;;18.80;99.90;;;;;;5112940;28;20039;-66
2023/08/18 01:04:04;;;;;;;54.28;40.28;;;18.90;99.90;;;;;;5112817;28;20376;-66
2023/08/18 01:06:32;;;;;;;44.75;39.10;;;18.90;99.90;;;;;;5112990;28;20024;-67
2023/08/18 01:08:58;;;;;;;44.25;39.42;;;18.80;99.90;;;;;;5111646;28;20118;-66
2023/08/18 01:12:06;;;;;;;48.33;40.05;;;18.80;99.90;;;;;;5112931;28;20036;-66
2023/08/18 01:14:44;;;;;;;48.25;39.35;;;18.70;99.90;;;;;;5104500;28;20047;-66
2023/08/18 01:17:22;;;;;;;47.13;39.50;;;18.70;99.90;;;;;;5111583;28;20032;-66
2023/08/18 01:19:49;;;;;;;50.40;40.78;;;18.70;99.90;;;;;;5111480;28;20164;-67
2023/08/18 01:22:17;;;;;;;52.67;40.97;;;18.70;99.90;;;;;;5113101;28;20030;-66
2023/08/18 01:24:44;;;;;;;49.13;40.53;;;18.70;99.90;;;;;;5111391;28;20115;-66
2023/08/18 01:27:10;;;;;;;48.00;38.92;;;18.70;99.90;;;;;;5112583;28;20058;-67
2023/08/18 01:29:36;;;;;;;49.55;39.20;;;18.60;99.90;;;;;;5111291;28;20031;-66
2023/08/18 01:32:06;;;;;;;47.88;39.03;;;18.70;99.90;;;;;;5112821;28;20539;-67
2023/08/18 01:34:37;;;;;;;46.20;39.05;;;18.60;99.90;;;;;;5112738;28;20097;-66
2023/08/18 01:37:03;;;;;;;48.22;38.75;;;18.60;99.90;;;;;;5112730;28;20039;-66
2023/08/18 01:39:31;;;;;;;47.67;39.13;;;18.60;99.90;;;;;;5112630;28;20036;-66
2023/08/18 01:41:58;;;;;;;46.75;39.75;;;18.60;99.90;;;;;;5111253;28;20024;-66
2023/08/18 01:44:25;;;;;;;48.53;38.75;;;18.60;99.90;;;;;;5111441;28;20051;-66
2023/08/18 01:46:51;;;;;;;43.03;38.35;;;18.60;99.90;;;;;;5111119;28;20066;-66
2023/08/18 01:49:17;;;;;;;48.40;39.00;;;18.60;99.90;;;;;;5111301;28;20101;-66
2023/08/18 01:51:42;;;;;;;47.22;38.97;;;18.60;99.90;;;;;;5112387;28;20430;-66
2023/08/18 01:54:08;;;;;;;49.75;40.55;;;18.60;99.90;;;;;;5112549;28;20027;-66
2023/08/18 01:56:34;;;;;;;48.63;39.67;;;18.60;99.90;;;;;;5112477;28;20068;-66
2023/08/18 01:59:03;;;;;;;45.40;38.08;;;18.60;99.90;;;;;;5110783;28;20024;-66
2023/08/18 02:01:29;;;;;;;46.05;40.42;;;18.60;99.90;;;;;;5112482;28;20024;-66
2023/08/18 02:03:55;;;;;;;46.90;39.88;;;18.50;99.90;;;;;;5112352;28;20028;-66
2023/08/18 02:06:20;;;;;;;47.90;38.38;;;18.60;99.90;;;;;;5111067;28;20058;-67
2023/08/18 02:08:46;;;;;;;47.08;39.50;;;18.60;99.90;;;;;;5112475;28;20032;-66
2023/08/18 02:11:12;;;;;;;49.00;38.67;;;18.50;99.90;;;;;;5112260;28;20167;-66
2023/08/18 02:13:38;;;;;;;48.60;38.15;;;18.60;99.90;;;;;;5113357;28;20054;-67
2023/08/18 02:16:04;;;;;;;50.50;40.30;;;18.60;99.90;;;;;;5114946;28;20019;-67
2023/08/18 02:18:32;;;;;;;45.60;38.30;;;18.50;99.90;;;;;;5114777;28;20092;-66
2023/08/18 02:21:02;;;;;;;49.53;40.05;;;18.50;99.90;;;;;;5116266;28;20520;-66
2023/08/18 02:23:28;;;;;;;51.22;39.55;;;18.50;99.90;;;;;;5116283;28;20031;-66
2023/08/18 02:26:05;;;;;;;49.67;39.15;;;18.60;99.90;;;;;;5114761;28;20142;-66
2023/08/18 02:28:32;;;;;;;49.53;39.30;;;18.70;99.90;;;;;;5116006;28;20024;-67
2023/08/18 02:31:03;;;;;;;48.80;40.00;;;18.70;99.90;;;;;;5116030;28;20115;-66
2023/08/18 02:33:30;;;;;;;47.97;39.13;;;18.70;99.90;;;;;;5114624;28;20099;-66
2023/08/18 02:35:58;;;;;;;45.40;38.63;;;18.60;99.90;;;;;;5114607;28;20469;-66
2023/08/18 02:38:28;;;;;;;46.35;38.72;;;18.60;99.90;;;;;;5115966;28;20080;-67
2023/08/18 02:40:54;;;;;;;46.08;39.10;;;18.60;99.90;;;;;;5114408;28;20031;-66
2023/08/18 02:43:22;;;;;;;44.90;38.25;;;18.60;99.90;;;;;;5115871;28;20036;-66
2023/08/18 02:45:48;;;;;;;47.65;39.05;;;18.70;99.90;;;;;;5114327;28;20020;-66
2023/08/18 02:48:16;;;;;;;46.75;38.78;;;18.70;99.90;;;;;;5114282;28;20027;-66
2023/08/18 02:50:42;;;;;;;46.97;37.92;;;18.70;99.90;;;;;;5115741;28;20028;-66
2023/08/18 02:53:08;;;;;;;43.97;38.13;;;18.70;99.90;;;;;;5115564;28;20038;-66
2023/08/18 02:55:34;;;;;;;49.15;40.00;;;18.70;99.90;;;;;;5114143;28;20035;-67
2023/08/18 02:58:01;;;;;;;47.45;40.38;;;18.70;99.90;;;;;;5115682;28;20035;-66
2023/08/18 03:00:27;;;;;;;49.45;39.03;;;18.80;99.90;;;;;;5115959;28;20044;-66
2023/08/18 03:02:53;;;;;;;49.47;38.55;;;18.80;99.90;;;;;;5115085;28;20045;-66
2023/08/18 03:05:19;;;;;;;47.05;38.55;;;18.80;99.90;;;;;;5115432;28;20038;-66
2023/08/18 03:07:45;;;;;;;46.63;37.83;;;18.80;99.90;;;;;;5115375;28;20031;-67
2023/08/18 03:10:12;;;;;;;44.42;38.00;;;18.80;99.90;;;;;;5113638;28;20100;-67
2023/08/18 03:12:38;;;;;;;47.88;39.40;;;18.80;99.90;;;;;;5114953;28;20032;-66
2023/08/18 03:15:05;;;;;;;51.22;43.67;;;18.90;99.90;;;;;;5115209;28;20024;-66
2023/08/18 03:17:32;;;;;;;52.28;42.10;;;19.00;99.90;;;;;;5115239;28;20457;-66
2023/08/18 03:19:58;;;;;;;48.65;40.33;;;19.00;99.90;;;;;;5113864;28;20042;-66
2023/08/18 03:22:24;;;;;;;49.00;39.42;;;18.90;99.90;;;;;;5113748;28;20046;-67
2023/08/18 03:24:50;;;;;;;42.85;37.38;;;18.90;99.90;;;;;;5113968;28;20020;-66
2023/08/18 03:27:16;;;;;;;45.83;38.83;;;18.90;99.90;;;;;;5114805;28;20034;-67
2023/08/18 03:29:42;;;;;;;49.30;40.67;;;18.90;99.90;;;;;;5114770;28;20028;-66
2023/08/18 03:32:08;;;;;;;42.45;36.67;;;18.90;99.90;;;;;;5113280;28;20032;-66
2023/08/18 03:34:33;;;;;;;40.58;35.67;;;19.00;99.90;;;;;;5114737;28;20032;-66
2023/08/18 03:36:59;;;;;;;42.42;37.40;;;19.00;99.90;;;;;;5114748;28;20052;-67
2023/08/18 03:39:25;;;;;;;42.22;36.08;;;18.90;99.90;;;;;;5113474;28;20370;-66
2023/08/18 03:41:51;;;;;;;43.30;35.88;;;18.90;99.90;;;;;;5114700;28;20465;-67
2023/08/18 03:44:17;;;;;;;46.05;36.28;;;18.80;99.90;;;;;;5114505;28;20583;-66
2023/08/18 03:46:43;;;;;;;42.40;36.97;;;18.80;99.90;;;;;;5113214;28;20408;-67
2023/08/18 03:49:09;;;;;;;42.47;37.60;;;18.90;99.90;;;;;;5113199;28;20031;-67
2023/08/18 03:51:35;;;;;;;46.10;37.22;;;18.90;99.90;;;;;;5114172;28;20072;-66
2023/08/18 03:54:01;;;;;;;41.80;36.25;;;18.80;99.90;;;;;;5112694;28;20489;-67
2023/08/18 03:56:27;;;;;;;46.92;38.53;;;18.80;99.90;;;;;;5112899;28;20024;-67
2023/08/18 03:58:53;;;;;;;44.80;37.17;;;18.90;99.90;;;;;;5112613;28;20016;-66
2023/08/18 04:01:20;;;;;;;45.95;37.55;;;18.90;99.90;;;;;;5113068;28;20381;-67
2023/08/18 04:03:46;;;;;;;45.95;39.08;;;19.00;99.90;;;;;;5112907;28;20091;-67
2023/08/18 04:06:14;;;;;;;50.13;39.10;;;19.00;99.90;;;;;;5114154;28;20034;-67
2023/08/18 04:08:42;;;;;;;45.70;40.20;;;19.00;99.90;;;;;;5114200;28;20023;-66
2023/08/18 04:11:10;;;;;;;49.35;39.30;;;19.10;99.90;;;;;;5112542;28;20032;-67
2023/08/18 04:13:36;;;;;;;53.75;39.47;;;19.10;99.90;;;;;;5113726;28;20076;-66
2023/08/18 04:16:03;;;;;;;48.15;40.17;;;19.10;99.90;;;;;;5112596;28;20024;-67
2023/08/18 04:18:30;;;;;;;49.42;41.10;;;19.10;99.90;;;;;;5112657;28;20126;-67
2023/08/18 04:20:57;;;;;;;57.25;43.13;;;19.10;99.90;;;;;;5112420;28;20028;-67
2023/08/18 04:23:23;;;;;;;57.10;44.22;;;19.10;99.90;;;;;;5112509;28;20043;-66
2023/08/18 04:25:50;;;;;;;58.72;43.60;;;19.20;99.90;;;;;;5112459;28;20069;-67
2023/08/18 04:28:16;;;;;;;56.40;38.70;;;19.20;99.90;;;;;;5113401;28;20088;-66
2023/08/18 04:30:45;;;;;;;60.00;40.67;;;19.20;99.90;;;;;;5112178;28;20472;-66
2023/08/18 04:33:16;;;;;;;55.08;41.75;;;19.10;99.90;;;;;;5112350;28;20035;-67
2023/08/18 04:35:42;;;;;;;64.28;43.40;;;19.10;99.90;;;;;;5112087;28;20127;-67
2023/08/18 04:38:10;;;;;;;64.63;41.13;;;19.20;99.90;;;;;;5111910;28;20028;-67
2023/08/18 04:40:37;;;;;;;64.65;40.78;;;19.20;99.90;;;;;;5112166;28;20030;-67
2023/08/18 04:43:03;;;;;;;71.03;42.63;;;19.20;99.90;;;;;;5113195;28;20385;-66
2023/08/18 04:45:28;;;;;;;75.63;44.00;;;19.20;99.90;;;;;;5111886;28;20093;-66
2023/08/18 04:47:55;;;;;;;83.10;45.75;;;19.20;99.90;;;;;;5111820;28;20034;-67
2023/08/18 04:50:22;;;;;;;80.95;45.90;;;19.30;99.90;;;;;;5111834;28;20031;-66
2023/08/18 04:52:47;;;;;;;77.60;46.45;;;19.30;99.90;;;;;;5111803;28;20031;-67
2023/08/18 04:55:14;;;;;;;82.78;46.97;;;19.40;99.90;;;;;;5111851;28;20468;-67
2023/08/18 04:57:40;;;;;;;75.70;48.25;;;19.40;99.90;;;;;;5111834;28;20028;-67
2023/08/18 05:00:08;;;;;;;71.30;47.10;;;19.50;99.90;;;;;;5111753;28;20057;-66
2023/08/18 05:02:34;;;;;;;87.90;49.35;;;19.50;99.90;;;;;;5111398;28;20064;-66
2023/08/18 05:05:00;;;;;;;79.00;47.47;;;19.70;99.90;;;;;;5111590;28;20035;-67
2023/08/18 05:07:26;;;;;;;82.00;51.72;;;19.80;99.90;;;;;;5113173;28;20027;-67
2023/08/18 05:09:52;;;;;;;76.88;50.33;;;19.90;99.90;;;;;;5111473;28;20472;-67
2023/08/18 05:12:20;;;;;;;71.18;51.00;;;20.00;99.90;;;;;;5111328;28;20034;-67
2023/08/18 05:22:21;;;;;;;78.75;44.33;;;20.10;99.90;;;;;;5079937;28;20278;-67
2023/08/18 05:24:53;;;;;;;62.47;43.13;;;20.10;99.90;;;;;;5067086;28;20031;-67
2023/08/18 05:27:19;;;;;;;60.13;42.05;;;20.20;99.90;;;;;;5067034;28;20025;-67
2023/08/18 05:29:44;;;;;;;57.15;43.25;;;20.20;99.90;;;;;;5067692;28;20035;-67
2023/08/18 05:32:10;;;;;;;49.88;39.70;;;20.30;99.90;;;;;;5067698;28;20106;-67
2023/08/18 05:34:36;;;;;;;57.85;41.60;;;20.40;99.90;;;;;;5067925;28;20132;-67
2023/08/18 05:37:02;;;;;;;59.30;40.10;;;20.40;99.90;;;;;;5068551;28;20028;-67
2023/08/18 05:39:28;;;;;;;53.20;39.97;;;20.50;99.90;;;;;;5067707;28;20103;-67
2023/08/18 05:41:54;;;;;;;66.70;42.60;;;20.60;99.90;;;;;;5067672;28;20067;-67
2023/08/18 05:44:20;;;;;;;57.95;43.20;;;20.70;99.90;;;;;;5067275;28;20024;-67
2023/08/18 05:46:45;;;;;;;60.55;41.72;;;20.80;99.90;;;;;;5067453;28;20032;-67
2023/08/18 05:49:11;;;;;;;57.63;41.83;;;20.90;99.90;;;;;;5069742;28;20536;-67
2023/08/18 05:51:42;;;;;;;54.50;44.08;;;20.90;99.90;;;;;;5070227;28;20107;-67
2023/08/18 05:54:09;;;;;;;57.78;43.25;;;20.90;99.90;;;;;;5074231;28;20078;-67
2023/08/18 05:56:44;;;;;;;55.15;44.22;;;20.90;99.90;;;;;;5074618;28;20089;-67
2023/08/18 06:03:47;;;;;;;56.92;43.80;;;21.30;99.90;;;;;;5058732;28;20622;-67
2023/08/18 06:06:14;;;;;;;64.35;45.67;;;21.40;99.90;;;;;;5069811;28;20028;-67
2023/08/18 06:08:40;;;;;;;63.75;48.10;;;21.40;99.90;;;;;;5068275;28;20028;-67
2023/08/18 06:11:06;;;;;;;63.42;48.08;;;21.60;99.90;;;;;;5071031;28;20020;-67
2023/08/18 06:13:32;;;;;;;69.22;49.42;;;21.70;99.90;;;;;;5066379;28;20277;-67
2023/08/18 06:16:06;;;;;;;65.47;48.80;;;21.70;99.90;;;;;;5071227;28;20334;-67
2023/08/18 06:22:27;;;;;;;74.78;51.10;;;21.70;99.90;;;;;;5071210;28;20077;-67
2023/08/18 06:24:53;;;;;;;78.93;54.58;;;21.80;99.90;;;;;;5070683;28;20518;-67
2023/08/18 06:27:19;;;;;;;72.80;54.55;;;21.80;99.90;;;;;;5071025;28;21192;-67
2023/08/18 06:29:45;;;;;;;83.18;59.03;;;21.90;99.90;;;;;;5070406;28;20020;-67
2023/08/18 06:32:11;;;;;;;80.82;55.45;;;22.10;99.90;;;;;;5072279;28;20055;-67
2023/08/18 06:34:38;;;;;;;85.35;60.67;;;22.20;99.90;;;;;;5070509;28;20031;-67
2023/08/18 06:37:04;;;;;;;81.07;57.92;;;22.40;99.90;;;;;;5071376;28;20490;-67
2023/08/18 06:39:30;;;;;;;82.15;59.42;;;22.50;99.90;;;;;;5069718;28;20028;-67
2023/08/18 06:41:59;;;;;;;81.60;57.75;;;22.60;99.90;;;;;;5070318;28;20035;-67
2023/08/18 06:44:25;;;;;;;87.63;60.53;;;22.80;99.90;;;;;;5068851;28;20035;-67
2023/08/18 06:46:51;;;;;;;79.00;57.95;;;22.90;99.90;;;;;;5070638;28;20051;-67
2023/08/18 06:49:17;;;;;;;81.63;58.00;;;22.90;99.90;;;;;;5071675;28;20024;-67
2023/08/18 06:51:43;;;;;;;77.22;57.17;;;23.20;99.90;;;;;;5073297;28;20761;-67
2023/08/18 06:54:10;;;;;;;88.00;57.60;;;23.30;99.90;;;;;;5071686;28;20028;-67
2023/08/18 06:56:36;;;;;;;84.20;54.88;;;23.40;99.90;;;;;;5073213;28;20020;-67
2023/08/18 06:59:02;;;;;;;92.32;61.97;;;23.50;99.90;;;;;;5073349;28;20024;-67
2023/08/18 07:01:30;;;;;;;83.93;58.70;;;23.60;99.90;;;;;;5074666;28;20028;-67
2023/08/18 07:03:55;;;;;;;85.78;59.20;;;23.40;99.90;;;;;;5090754;28;20419;-67
2023/08/18 07:06:21;;;;;;;86.32;60.45;;;23.50;99.90;;;;;;5096333;28;20069;-67
2023/08/18 07:08:47;;;;;;;94.82;63.05;;;23.60;99.90;;;;;;5096315;28;20036;-67
2023/08/18 07:11:14;;;;;;;86.82;62.28;;;23.40;99.90;;;;;;5096182;28;21019;-67
2023/08/18 07:13:40;;;;;;;94.70;64.97;;;23.20;99.90;;;;;;5096134;28;20035;-67
2023/08/18 07:16:06;;;;;;;111.50;67.18;;;23.20;99.90;;;;;;5095164;28;20077;-67
2023/08/18 07:18:32;;;;;;;102.03;67.82;;;23.30;99.90;;;;;;5095748;28;20027;-68
2023/08/18 07:20:59;;;;;;;107.38;71.53;;;23.40;99.90;;;;;;5096242;28;20740;-68
2023/08/18 07:23:25;;;;;;;101.30;68.50;;;23.40;99.90;;;;;;5095874;28;20877;-67
2023/08/18 07:25:52;;;;;;;115.57;69.32;;;23.40;99.90;;;;;;5096108;28;20095;-67
2023/08/18 07:28:18;;;;;;;98.93;68.28;;;23.40;99.90;;;;;;5095936;28;20027;-67
2023/08/18 07:30:44;;;;;;;111.50;71.07;;;23.40;99.90;;;;;;5095602;28;20096;-67
2023/08/18 07:33:10;;;;;;;99.95;68.80;;;23.50;99.90;;;;;;5095832;28;20031;-67
2023/08/18 07:35:35;;;;;;;113.03;71.70;;;23.60;99.90;;;;;;5095838;28;20036;-67
2023/08/18 07:38:02;;;;;;;108.00;70.25;;;23.70;99.90;;;;;;5096780;28;20023;-67
2023/08/18 07:40:28;;;;;;;99.20;66.60;;;23.90;99.90;;;;;;5095541;28;20082;-66
2023/08/18 07:42:54;;;;;;;102.03;67.63;;;24.00;99.90;;;;;;5096656;28;20139;-67
2023/08/18 07:45:21;;;;;;;102.78;70.70;;;24.10;99.90;;;;;;5095541;28;20035;-67
2023/08/18 07:47:47;;;;;;;105.40;70.80;;;24.00;99.90;;;;;;5095758;28;20123;-67
2023/08/18 07:50:13;;;;;;;117.82;75.40;;;24.10;99.90;;;;;;5095388;28;20228;-67
2023/08/18 07:52:41;;;;;;;109.65;72.18;;;24.10;99.90;;;;;;5096179;28;20067;-67
2023/08/18 07:55:08;;;;;;;115.95;73.53;;;24.20;99.90;;;;;;5095345;28;20027;-67
2023/08/18 07:57:35;;;;;;;110.45;73.30;;;24.20;99.90;;;;;;5096217;28;20027;-67
2023/08/18 08:00:10;;;;;;;115.43;71.97;;;24.10;99.90;;;;;;5095346;28;20197;-67
2023/08/18 08:02:38;;;;;;;113.70;75.28;;;24.20;99.90;;;;;;5093733;28;20079;-67
2023/08/18 08:05:05;;;;;;;113.00;72.88;;;24.10;99.90;;;;;;5090553;28;20034;-67
2023/08/18 08:07:34;;;;;;;109.95;74.32;;;24.20;99.90;;;;;;5091042;28;20039;-67
2023/08/18 08:10:03;;;;;;;120.30;75.80;;;24.20;99.90;;;;;;5090755;28;20023;-67
2023/08/18 08:12:34;;;;;;;117.97;75.15;;;24.30;99.90;;;;;;5090929;28;20020;-67
2023/08/18 08:15:03;;;;;;;120.00;74.15;;;24.40;99.90;;;;;;5090028;28;20381;-67
2023/08/18 08:17:30;;;;;;;133.18;76.30;;;24.60;99.90;;;;;;5090199;28;20027;-67
2023/08/18 08:20:10;;;;;;;122.60;75.93;;;24.60;99.90;;;;;;5091327;28;20031;-67
2023/08/18 08:22:37;;;;;;;119.10;73.03;;;24.80;99.90;;;;;;5090079;28;20260;-67
2023/08/18 08:25:05;;;;;;;109.72;69.57;;;24.90;99.90;;;;;;5090716;28;20076;-67
2023/08/18 08:27:31;;;;;;;115.80;73.13;;;25.20;99.90;;;;;;5090133;28;20560;-67
2023/08/18 08:30:00;;;;;;;114.40;69.40;;;25.30;99.90;;;;;;5089873;28;20024;-67
2023/08/18 08:32:26;;;;;;;118.77;72.53;;;25.80;99.90;;;;;;5090096;28;20027;-68
2023/08/18 08:34:52;;;;;;;100.50;66.47;;;25.90;99.90;;;;;;5089569;28;20030;-67
2023/08/18 08:37:18;;;;;;;99.95;64.97;;;26.10;99.90;;;;;;5089820;28;20102;-68
2023/08/18 08:39:44;;;;;;;99.95;66.57;;;26.60;99.90;;;;;;5089936;28;20553;-67
2023/08/18 08:42:11;;;;;;;95.70;65.28;;;27.10;99.90;;;;;;5089743;28;20106;-67
2023/08/18 08:44:37;;;;;;;104.53;66.53;;;27.60;99.60;;;;;;5089268;28;20092;-67
2023/08/18 08:47:04;;;;;;;92.40;60.15;;;27.90;99.00;;;;;;5071333;28;20594;-67
2023/08/18 08:49:30;;;;;;;102.10;65.68;;;28.00;97.20;;;;;;5089621;28;20059;-67
2023/08/18 08:52:03;;;;;;;104.00;68.18;;;28.10;96.00;;;;;;5089693;28;20031;-67
2023/08/18 08:54:30;;;;;;;100.68;63.47;;;28.60;96.10;;;;;;5090956;28;20088;-68
2023/08/18 08:57:01;;;;;;;101.97;63.20;;;28.70;94.90;;;;;;5089534;28;20032;-67
2023/08/18 08:59:26;;;;;;;101.57;63.22;;;28.80;94.00;;;;;;5089797;28;20366;-67
2023/08/18 09:01:53;;;;;;;98.97;62.50;;;29.00;92.80;;;;;;5089610;28;20461;-67
2023/08/18 09:04:20;;;;;;;107.25;64.45;;;28.90;92.80;;;;;;5089527;28;20484;-67
2023/08/18 09:06:48;;;;;;;94.90;61.83;;;28.70;92.60;;;;;;5090680;28;20066;-67
2023/08/18 09:09:14;;;;;;;89.28;62.50;;;29.10;92.70;;;;;;5090632;28;20081;-67
2023/08/18 09:11:45;;;;;;;91.57;62.80;;;29.40;91.70;;;;;;5090454;28;20044;-67
2023/08/18 09:14:16;;;;;;;85.50;59.00;;;29.50;90.30;;;;;;5091045;28;20035;-67
2023/08/18 09:16:45;;;;;;;88.38;58.97;;;29.90;89.60;;;;;;5089029;28;20038;-67
2023/08/18 09:19:15;;;;;;;84.15;58.10;;;30.10;90.30;;;;;;5089167;28;20044;-67
2023/08/18 09:21:42;;;;;;;94.13;66.50;;;30.00;90.00;;;;;;5089682;28;20035;-68
2023/08/18 09:24:09;;;;;;;96.18;65.25;;;30.10;88.10;;;;;;5088269;28;20294;-67
2023/08/18 09:26:35;;;;;;;98.75;66.10;;;30.50;86.30;;;;;;5088823;28;20173;-67
2023/08/18 09:29:02;;;;;;;89.38;66.82;;;30.90;82.90;;;;;;5089556;28;20235;-67
2023/08/18 09:31:29;;;;;;;94.35;66.38;;;30.70;82.80;;;;;;5089339;28;20030;-68
2023/08/18 09:33:56;;;;;;;97.78;68.88;;;30.50;83.30;;;;;;5089315;28;20034;-68
2023/08/18 09:36:22;;;;;;;95.30;65.47;;;30.40;83.10;;;;;;5088186;28;20069;-67
2023/08/18 09:38:48;;;;;;;94.25;63.72;;;30.90;81.60;;;;;;5089830;28;20396;-67
2023/08/18 09:41:14;;;;;;;87.38;61.33;;;31.40;80.60;;;;;;5088671;28;20081;-68
2023/08/18 09:43:43;;;;;;;86.47;58.72;;;31.50;79.70;;;;;;5088841;28;20032;-68
2023/08/18 09:46:13;;;;;;;90.93;57.13;;;31.60;76.50;;;;;;5089348;28;20042;-68
2023/08/18 09:56:08;;;;;;;80.72;55.08;;;31.60;76.80;;;;;;5071424;28;20054;-68
2023/08/18 09:58:54;;;;;;;72.30;50.80;;;31.40;77.90;;;;;;5069380;28;20485;-68
2023/08/18 10:01:23;;;;;;;71.18;50.05;;;31.80;75.30;;;;;;5072848;28;20028;-68
2023/08/18 10:03:49;;;;;;;69.15;48.35;;;31.80;77.80;;;;;;5072518;28;20040;-60
2023/08/18 10:06:17;;;;;;;75.60;49.17;;;32.30;76.10;;;;;;5072581;28;20024;-60
2023/08/18 10:08:44;;;;;;;61.50;45.58;;;32.40;72.90;;;;;;5071852;28;20028;-60
2023/08/18 10:11:11;;;;;;;60.80;46.08;;;32.60;72.80;;;;;;5070727;28;20103;-59
2023/08/18 10:13:37;;;;;;;56.35;42.17;;;32.70;70.70;;;;;;5072189;28;20430;-60
2023/08/18 10:16:07;;;;;;;65.15;46.85;;;32.90;73.20;;;;;;5068878;28;20056;-60
2023/08/18 10:18:32;;;;;;;57.72;42.03;;;33.40;69.40;;;;;;5069275;28;20369;-60
2023/08/18 10:20:59;;;;;;;52.03;42.05;;;33.30;71.40;;;;;;5068271;28;20031;-60
2023/08/18 10:23:29;;;;;;;60.05;44.85;;;33.10;69.30;;;;;;5049955;28;20031;-60
2023/08/18 10:25:55;;;;;;;;;;;33.10;68.90;;;;;;5068552;28;20036;-60
2023/08/18 10:28:26;;;;;;;54.72;39.55;;;33.00;68.00;;;;;;5070744;28;19916;-60
2023/08/18 10:31:00;;;;;;;53.22;40.45;;;32.90;69.10;;;;;;5072490;28;20038;-60
2023/08/18 10:33:30;;;;;;;54.58;40.65;;;32.70;67.60;;;;;;5072561;28;20138;-60
2023/08/18 10:35:57;;;;;;;50.72;41.33;;;32.20;68.80;;;;;;5072863;28;20035;-60
2023/08/18 10:38:28;;;;;;;53.80;38.95;;;31.90;70.60;;;;;;5070980;28;20032;-60
2023/08/18 10:40:54;;;;;;;49.60;37.85;;;31.70;70.70;;;;;;5071701;28;20556;-60
2023/08/18 10:43:20;;;;;;;40.92;35.55;;;31.80;72.40;;;;;;5072050;28;20040;-60
2023/08/18 10:45:50;;;;;;;39.53;32.60;;;32.10;71.60;;;;;;5070768;28;20677;-60
2023/08/18 10:48:16;;;;;;;42.38;31.55;;;32.30;71.00;;;;;;5071578;28;20397;-60
2023/08/18 10:50:44;;;;;;;45.05;31.67;;;32.30;69.10;;;;;;5070419;28;20032;-60
2023/08/18 10:53:13;;;;;;;38.55;29.90;;;32.30;70.60;;;;;;5069577;28;20094;-60
2023/08/18 10:55:41;;;;;;;38.63;30.73;;;32.30;69.50;;;;;;5071636;28;20024;-60
2023/08/18 10:58:07;;;;;;;37.67;26.88;;;31.80;70.20;;;;;;5071031;28;20223;-60
2023/08/18 11:00:35;;;;;;;33.88;25.95;;;31.30;72.10;;;;;;5071611;28;20086;-60
2023/08/18 11:03:01;;;;;;;31.13;22.25;;;31.50;71.10;;;;;;5072533;28;20059;-60
2023/08/18 11:05:31;;;;;;;25.98;20.20;;;31.10;71.50;;;;;;5071335;28;20424;-60
2023/08/18 11:07:58;;;;;;;25.20;17.58;;;31.10;72.20;;;;;;5070672;28;20475;-60
2023/08/18 11:10:25;;;;;;;27.85;20.48;;;30.90;72.30;;;;;;5071505;28;20043;-60
2023/08/18 11:12:57;;;;;;;25.00;19.58;;;31.00;72.60;;;;;;5070524;28;20036;-60
2023/08/18 11:15:24;;;;;;;25.25;22.52;;;30.40;73.30;;;;;;5070338;28;20103;-60
2023/08/18 11:17:50;;;;;;;28.48;23.00;;;29.60;73.40;;;;;;5071352;28;20032;-60
2023/08/18 11:20:16;;;;;;;27.52;23.77;;;29.70;78.30;;;;;;5071186;28;20146;-60
2023/08/18 11:22:51;;;;;;;27.63;22.35;;;29.80;76.10;;;;;;5070393;28;20031;-59
2023/08/18 11:25:19;;;;;;;35.00;24.65;;;30.00;77.20;;;;;;5070773;28;20033;-60
2023/08/18 11:27:45;;;;;;;35.22;24.20;;;29.90;76.30;;;;;;5071857;28;21022;-60
2023/08/18 11:30:13;;;;;;;36.58;24.17;;;30.10;76.50;;;;;;5074745;28;20081;-59
2023/08/18 11:32:40;;;;;;;55.88;25.77;;;30.10;77.80;;;;;;5075214;28;20032;-59
2023/08/18 11:35:07;;;;;;;33.30;22.52;;;30.20;76.40;;;;;;5070694;28;20043;-60
2023/08/18 11:37:41;;;;;;;27.70;21.88;;;30.40;76.20;;;;;;5073311;28;20108;-60
2023/08/18 11:40:12;;;;;;;28.88;23.95;;;30.70;76.10;;;;;;5074518;28;20032;-60
2023/08/18 11:42:45;;;;;;;33.13;25.77;;;31.10;73.90;;;;;;5072391;28;20028;-60
2023/08/18 11:45:15;;;;;;;30.77;22.98;;;31.50;73.00;;;;;;5069641;28;20028;-60
2023/08/18 11:47:42;;;;;;;27.20;23.02;;;32.10;71.50;;;;;;5067177;28;20113;-60
2023/08/18 11:50:09;;;;;;;33.22;25.63;;;31.90;68.50;;;;;;5068965;28;20020;-60
2023/08/18 11:52:42;;;;;;;31.40;23.67;;;32.50;67.90;;;;;;5070410;28;20057;-59
2023/08/18 11:55:15;;;;;;;29.90;25.65;;;32.70;68.50;;;;;;5065706;28;20028;-60
2023/08/18 11:57:44;;;;;;;28.50;25.52;;;33.20;67.50;;;;;;5053430;28;20062;-60
2023/08/18 12:00:13;;;;;;;30.63;27.33;;;32.30;64.00;;;;;;5068436;28;20426;-60
2023/08/18 12:02:46;;;;;;;43.70;33.47;;;31.60;66.90;;;;;;5068470;28;20044;-60
2023/08/18 12:05:22;;;;;;;33.30;27.48;;;32.40;67.10;;;;;;5049233;28;20028;-59
2023/08/18 12:07:51;;;;;;;29.52;26.40;;;32.70;63.00;;;;;;5055611;28;20443;-60
2023/08/18 12:10:18;;;;;;;35.25;28.27;;;32.60;63.80;;;;;;5072811;28;20028;-60
2023/08/18 12:12:53;;;;;;;34.15;29.08;;;33.10;64.10;;;;;;5073956;28;20024;-59
2023/08/18 12:15:21;;;;;;;31.02;27.80;;;33.50;62.10;;;;;;5071759;28;20535;-60
2023/08/18 12:17:48;;;;;;;38.22;33.53;;;33.80;61.20;;;;;;5070753;28;20035;-60
2023/08/18 12:20:18;;;;;;;39.08;34.05;;;33.50;59.10;;;;;;5073899;28;20032;-60
2023/08/18 12:22:46;;;;;;;34.92;31.33;;;33.90;59.10;;;;;;5074377;28;20111;-60
2023/08/18 12:25:12;;;;;;;36.20;32.03;;;33.70;57.00;;;;;;5073601;28;20020;-60
2023/08/18 12:27:38;;;;;;;37.92;34.03;;;34.00;59.50;;;;;;5069439;28;20270;-60
2023/08/18 12:30:06;;;;;;;35.92;32.08;;;34.10;56.80;;;;;;5071037;28;20369;-60
2023/08/18 12:32:32;;;;;;;36.95;33.15;;;33.20;57.60;;;;;;5069294;28;20482;-60
2023/08/18 12:34:59;;;;;;;38.80;34.88;;;31.60;60.90;;;;;;5070007;28;20413;-60
2023/08/18 12:37:25;;;;;;;37.90;33.72;;;31.80;60.90;;;;;;5069548;28;20861;-60
2023/08/18 12:39:51;;;;;;;38.88;34.47;;;32.20;59.00;;;;;;5069690;28;20028;-60
2023/08/18 12:42:16;;;;;;;45.08;40.35;;;32.60;59.40;;;;;;5070612;28;20034;-61
2023/08/18 12:44:45;;;;;;;44.22;39.45;;;32.30;61.50;;;;;;5069116;28;20134;-60
2023/08/18 12:47:11;;;;;;;51.20;42.50;;;32.90;58.00;;;;;;5069471;28;20504;-60
2023/08/18 12:49:37;;;;;;;46.00;38.35;;;33.50;57.20;;;;;;5069876;28;20701;-60